joomla templates top joomla templates template joomla

King Air Abend

Wetterbeurteilung mit Hilfe Webcam und ATIS

 

Webcam 1Webcam 2

(Zum vergrößern auf das Bild klicken)

Notam

C0503/18 - COBURG INFO CHANGED TO 128.680 (8.33 KHZ). 28 FEB 12:22 2018 UNTIL PERM. CREATED:
28 FEB 12:22 2018

C1109/18 - ATIS NOT AVBL. 24 APR 14:36 2018 UNTIL 24 JUL 23:59 2018 ESTIMATED. CREATED: 24 APR 14:43 2018

C0132/18 - DIRECTION FINDING STATION (VDF) COMPLETELY WITHDRAWN. 15 FEB 00:01 2018 UNTIL PERM. CREATED: 19 JAN 10:58 2018

Wetteranzeige

Aktuelles Platzwetter Stand 16.08.2018 22:13Z

AvgMinMax
Windrichtung12090130Deg
Windgeschwindigkeit224kt
Sichtweite>10000m
Temperatur22°C
Taupunkt9°C
Feuchte42%
QNH1016.0hPa
QFE962.5hPa
WolkenSKC

Aerodrome Terminal Information Service (ATIS) Coburg

METAR
EDQC 162150Z AUTO 08004KT CAVOK 23/09 Q1016=

METAR und TAF der Umgebung

[Quelle: ADDS]
METAR
EDDF 162150Z VRB02KT CAVOK 19/13 Q1013 NOSIG =
EDDN 162150Z 11006KT CAVOK 21/11 Q1015 =
EDDE 162150Z 21006KT CAVOK 21/11 Q1014 =
TAF
EDDF 161700Z 1618/1724 19006KT CAVOK BECMG 1618/1621 05003KT BECMG 1707/1710 31008KT PROB30 TEMPO 1713/1717 28015G25KT -TSRA SCT040CB =
EDDN 161700Z 1618/1718 12004KT CAVOK BECMG 1710/1712 19005KT BECMG 1712/1715 28006KT =
EDDE 161700Z 1618/1718 20006KT CAVOK BECMG 1709/1711 27006KT BECMG 1713/1715 34009KT =

Wetterverlauf

Windvorhersage

Verkehrslandeplatz Coburg Brandensteinsebene
Tower
Zur Brandensteinsebene
96450 Coburg

 

Telefon +49 (0) 95 61 / 9 20 98
Telefax +49 (0) 95 61 / 9 20 06
EMail tower@vlp-coburg.de